createdAt,value
2022-09-12T00:01:19.465Z,15.48
2022-09-12T00:04:22.514Z,15.48
2022-09-12T00:07:25.042Z,15.31
2022-09-12T00:10:27.957Z,15.19
2022-09-12T00:13:30.481Z,15.20
2022-09-12T00:16:35.792Z,15.29
2022-09-12T00:19:38.491Z,15.36
2022-09-12T00:22:42.349Z,15.29
2022-09-12T00:25:48.061Z,15.38
2022-09-12T00:28:51.133Z,15.24
2022-09-12T00:31:53.687Z,15.34
2022-09-12T00:34:57.035Z,15.20
2022-09-12T00:37:59.638Z,15.21
2022-09-12T00:41:02.472Z,15.26
2022-09-12T00:44:11.038Z,15.14
2022-09-12T00:47:25.063Z,15.17
2022-09-12T00:50:28.052Z,15.09
2022-09-12T00:53:31.548Z,15.11
2022-09-12T00:56:35.773Z,14.90
2022-09-12T00:59:44.389Z,14.86
2022-09-12T01:02:50.573Z,14.84
2022-09-12T01:06:35.398Z,14.79
2022-09-12T01:09:39.678Z,14.95
2022-09-12T01:12:44.161Z,14.83
2022-09-12T01:15:47.162Z,14.83
2022-09-12T01:19:09.226Z,14.90
2022-09-12T01:22:30.119Z,14.94
2022-09-12T01:25:54.114Z,14.76
2022-09-12T01:29:29.726Z,14.77
2022-09-12T01:33:15.349Z,14.78
2022-09-12T01:36:38.231Z,14.77
2022-09-12T01:39:59.186Z,14.63
2022-09-12T01:43:06.722Z,14.70
2022-09-12T01:46:17.785Z,14.71
2022-09-12T01:49:26.634Z,14.64
2022-09-12T01:52:43.058Z,14.59
2022-09-12T01:55:51.380Z,14.67
2022-09-12T01:59:25.315Z,14.65
2022-09-12T02:02:34.147Z,14.57
2022-09-12T02:05:46.146Z,14.31
2022-09-12T02:08:55.108Z,14.43
2022-09-12T02:12:00.900Z,14.36
2022-09-12T02:15:08.638Z,14.32
2022-09-12T02:18:16.078Z,14.28
2022-09-12T02:21:20.215Z,14.40
2022-09-12T02:24:25.808Z,14.34
2022-09-12T02:27:37.843Z,14.31
2022-09-12T02:30:49.476Z,14.36
2022-09-12T02:34:15.647Z,14.46
2022-09-12T02:37:21.545Z,14.48
2022-09-12T02:40:24.729Z,14.58
2022-09-12T02:43:28.160Z,14.44
2022-09-12T02:46:42.719Z,14.37
2022-09-12T02:49:46.204Z,14.33
2022-09-12T02:52:49.147Z,14.45
2022-09-12T02:55:54.740Z,14.62
2022-09-12T02:59:05.252Z,14.44
2022-09-12T03:02:36.867Z,14.43
2022-09-12T03:05:49.672Z,14.37
2022-09-12T03:09:03.158Z,14.38
2022-09-12T03:12:35.101Z,14.31
2022-09-12T03:16:09.045Z,14.29
2022-09-12T03:19:20.178Z,14.33
2022-09-12T03:22:38.967Z,14.31
2022-09-12T03:25:48.758Z,14.27
2022-09-12T03:28:53.233Z,14.32
2022-09-12T03:31:58.589Z,14.23
2022-09-12T03:35:01.398Z,14.38
2022-09-12T03:38:04.314Z,14.21
2022-09-12T03:41:08.550Z,14.25
2022-09-12T03:44:11.115Z,14.21
2022-09-12T03:47:14.111Z,14.16
2022-09-12T03:50:16.702Z,14.08
2022-09-12T03:53:19.568Z,14.08
2022-09-12T03:56:22.646Z,14.19
2022-09-12T03:59:26.060Z,14.18
2022-09-12T04:02:29.511Z,14.21
2022-09-12T04:05:33.939Z,14.05
2022-09-12T04:08:37.692Z,14.25
2022-09-12T04:11:40.748Z,14.33
2022-09-12T04:15:08.570Z,14.25
2022-09-12T04:18:43.099Z,14.15
2022-09-12T04:21:45.745Z,14.09
2022-09-12T04:24:48.623Z,14.19
2022-09-12T04:27:54.953Z,14.16
2022-09-12T04:31:32.514Z,14.34
2022-09-12T04:34:38.559Z,14.59
2022-09-12T04:37:41.131Z,14.77
2022-09-12T04:40:44.150Z,15.16
2022-09-12T04:43:51.782Z,15.37
2022-09-12T04:46:54.612Z,15.61
2022-09-12T04:49:57.345Z,15.80
2022-09-12T04:53:00.192Z,16.22
2022-09-12T04:56:08.153Z,16.72
2022-09-12T05:00:15.718Z,17.14
2022-09-12T05:03:43.486Z,17.42
2022-09-12T05:06:47.632Z,17.76
2022-09-12T05:09:50.438Z,18.11
2022-09-12T05:12:54.085Z,18.08
2022-09-12T05:21:13.533Z,18.73
2022-09-12T05:24:16.490Z,18.69
2022-09-12T05:27:19.202Z,18.96
2022-09-12T05:30:23.388Z,19.13
2022-09-12T05:33:25.963Z,19.21
2022-09-12T05:36:31.670Z,19.81
2022-09-12T05:39:36.851Z,19.37
2022-09-12T05:46:32.959Z,20.16
2022-09-12T05:49:39.627Z,20.07
2022-09-12T17:27:30.917Z,19.46
2022-09-12T17:30:36.206Z,19.63
2022-09-12T17:33:41.883Z,19.49
2022-09-12T17:36:46.003Z,19.39
2022-09-12T17:40:09.566Z,19.34
2022-09-12T17:43:14.349Z,19.21
2022-09-12T17:46:38.845Z,19.22
2022-09-12T18:39:52.798Z,18.41
2022-09-12T18:52:56.674Z,18.17
2022-09-12T18:56:11.145Z,17.96
2022-09-12T19:00:12.661Z,17.87
2022-09-12T19:12:50.829Z,17.43
2022-09-12T19:15:53.688Z,17.34
2022-09-12T19:18:58.270Z,17.15
2022-09-12T19:22:03.354Z,16.91
2022-09-12T19:25:06.730Z,16.81
2022-09-12T19:28:22.215Z,16.91
2022-09-12T19:37:01.459Z,16.85
2022-09-12T19:40:05.785Z,16.78
2022-09-12T19:43:09.538Z,16.58
2022-09-12T19:46:25.801Z,16.46
2022-09-12T19:49:28.819Z,16.44
2022-09-12T19:57:44.357Z,16.29
2022-09-12T20:02:14.447Z,16.22
2022-09-12T20:05:18.228Z,16.09
2022-09-12T20:08:23.210Z,16.08
2022-09-12T20:11:29.102Z,16.08
2022-09-12T20:14:32.009Z,15.98
2022-09-12T20:17:35.716Z,16.12
2022-09-12T20:20:42.067Z,16.02
2022-09-12T20:23:46.852Z,15.85
2022-09-12T20:26:49.491Z,15.85
2022-09-12T20:29:53.196Z,15.86
2022-09-12T20:32:56.915Z,15.75
2022-09-12T20:36:06.482Z,15.75
2022-09-12T20:39:20.892Z,15.68
2022-09-12T20:42:48.352Z,15.76
2022-09-12T20:45:51.193Z,15.73
2022-09-12T20:48:54.318Z,15.77
2022-09-12T20:51:57.282Z,15.75
2022-09-12T20:55:00.168Z,15.56
2022-09-12T20:58:02.713Z,15.52
2022-09-12T21:01:09.529Z,15.51
2022-09-12T21:04:15.152Z,15.52
2022-09-12T21:07:18.222Z,15.37
2022-09-12T21:10:20.711Z,15.58
2022-09-12T21:13:23.725Z,15.59
2022-09-12T21:16:27.399Z,15.46
2022-09-12T21:19:30.386Z,15.21
2022-09-12T21:22:32.884Z,15.29
2022-09-12T21:25:35.675Z,14.97
2022-09-12T21:28:38.356Z,14.98
2022-09-12T21:31:43.782Z,15.05
2022-09-12T21:34:47.898Z,15.04
2022-09-12T21:37:54.212Z,14.93
2022-09-12T21:41:09.420Z,14.65
2022-09-12T21:44:12.202Z,14.75
2022-09-12T21:47:14.720Z,14.82
2022-09-12T21:50:17.622Z,14.84
2022-09-12T21:53:20.374Z,14.75
2022-09-12T21:56:23.279Z,14.69
2022-09-12T21:59:25.870Z,14.61
2022-09-12T22:02:30.180Z,14.61
2022-09-12T22:05:34.386Z,14.65
2022-09-12T22:08:39.041Z,14.72
2022-09-12T22:11:41.961Z,14.63
2022-09-12T22:14:48.089Z,14.53
2022-09-12T22:17:51.110Z,14.39
2022-09-12T22:21:07.985Z,14.39
2022-09-12T22:24:29.235Z,14.26
2022-09-12T22:27:31.801Z,14.22
2022-09-12T22:30:35.528Z,13.97
2022-09-12T22:33:38.669Z,14.01
2022-09-12T22:36:41.819Z,14.13
2022-09-12T22:39:44.395Z,14.20
2022-09-12T22:42:48.477Z,14.26
2022-09-12T22:45:51.556Z,14.23
2022-09-12T22:48:55.805Z,14.14
2022-09-12T22:51:58.687Z,14.07
2022-09-12T22:55:02.205Z,14.22
2022-09-12T22:58:06.226Z,13.96
2022-09-12T23:01:10.578Z,14.06
2022-09-12T23:04:13.516Z,14.14
2022-09-12T23:07:17.370Z,13.97
2022-09-12T23:10:22.730Z,14.18
2022-09-12T23:13:26.207Z,14.10
2022-09-12T23:16:32.199Z,14.15
2022-09-12T23:19:35.640Z,14.25
2022-09-12T23:22:41.560Z,14.23
2022-09-12T23:25:44.928Z,14.44
2022-09-12T23:33:39.692Z,13.69
2022-09-12T23:37:33.368Z,13.65
2022-09-12T23:40:36.492Z,13.33
2022-09-12T23:43:40.458Z,13.51
2022-09-12T23:47:28.646Z,13.39
2022-09-12T23:50:31.142Z,13.46
2022-09-12T23:53:35.905Z,13.64
2022-09-12T23:56:38.750Z,13.61
2022-09-12T23:59:41.885Z,13.39
